sensor_id;sensor_type;location;lat;lon;timestamp;pressure;altitude;pressure_sealevel;temperature;humidity
40490;BME280;26196;52.302;10.572;2023-03-01T00:01:05;102191.06;;;8.77;41.68
40490;BME280;26196;52.302;10.572;2023-03-01T00:05:06;102192.78;;;8.78;41.53
40490;BME280;26196;52.302;10.572;2023-03-01T00:09:07;102193.63;;;8.72;41.26
40490;BME280;26196;52.302;10.572;2023-03-01T00:13:07;102193.59;;;8.66;41.38
40490;BME280;26196;52.302;10.572;2023-03-01T00:17:08;102198.81;;;8.69;41.20
40490;BME280;26196;52.302;10.572;2023-03-01T00:21:08;102192.66;;;8.60;41.52
40490;BME280;26196;52.302;10.572;2023-03-01T00:25:09;102177.84;;;8.52;41.23
40490;BME280;26196;52.302;10.572;2023-03-01T00:29:09;102172.59;;;8.51;41.13
40490;BME280;26196;52.302;10.572;2023-03-01T00:33:10;102174.25;;;8.43;41.50
40490;BME280;26196;52.302;10.572;2023-03-01T00:37:12;102179.50;;;8.46;41.16
40490;BME280;26196;52.302;10.572;2023-03-01T00:41:15;102184.75;;;8.49;41.00
40490;BME280;26196;52.302;10.572;2023-03-01T00:45:16;102172.53;;;8.43;40.96
40490;BME280;26196;52.302;10.572;2023-03-01T00:49:16;102175.97;;;8.41;40.98
40490;BME280;26196;52.302;10.572;2023-03-01T00:53:17;102155.84;;;8.27;40.54
40490;BME280;26196;52.302;10.572;2023-03-01T00:57:22;102180.28;;;8.37;40.91
40490;BME280;26196;52.302;10.572;2023-03-01T01:01:25;102182.84;;;8.36;41.44
40490;BME280;26196;52.302;10.572;2023-03-01T01:05:45;102185.44;;;8.34;41.47
40490;BME280;26196;52.302;10.572;2023-03-01T01:09:46;102175.00;;;8.29;41.17
40490;BME280;26196;52.302;10.572;2023-03-01T01:13:47;102167.09;;;8.23;40.86
40490;BME280;26196;52.302;10.572;2023-03-01T01:17:50;102157.50;;;8.19;40.96
40490;BME280;26196;52.302;10.572;2023-03-01T01:21:50;102155.78;;;8.23;40.65
40490;BME280;26196;52.302;10.572;2023-03-01T01:25:51;102133.88;;;8.01;40.63
40490;BME280;26196;52.302;10.572;2023-03-01T01:29:55;102154.88;;;8.16;40.70
40490;BME280;26196;52.302;10.572;2023-03-01T01:33:56;102146.91;;;8.05;40.64
40490;BME280;26196;52.302;10.572;2023-03-01T01:37:57;102155.59;;;8.03;41.42
40490;BME280;26196;52.302;10.572;2023-03-01T01:42:05;102145.22;;;8.07;40.57
40490;BME280;26196;52.302;10.572;2023-03-01T01:50:23;102153.84;;;8.02;41.06
40490;BME280;26196;52.302;10.572;2023-03-01T01:54:50;102137.19;;;7.86;40.43
40490;BME280;26196;52.302;10.572;2023-03-01T01:58:53;102138.94;;;7.88;40.59
40490;BME280;26196;52.302;10.572;2023-03-01T02:03:18;102145.91;;;7.89;39.85
40490;BME280;26196;52.302;10.572;2023-03-01T02:07:23;102137.22;;;7.89;40.75
40490;BME280;26196;52.302;10.572;2023-03-01T02:11:25;102128.41;;;7.79;40.08
40490;BME280;26196;52.302;10.572;2023-03-01T02:15:26;102130.16;;;7.79;40.37
40490;BME280;26196;52.302;10.572;2023-03-01T02:20:22;102112.66;;;7.68;40.28
40490;BME280;26196;52.302;10.572;2023-03-01T02:24:00;102116.22;;;7.75;40.30
40490;BME280;26196;52.302;10.572;2023-03-01T02:32:05;102100.47;;;7.66;39.96
40490;BME280;26196;52.302;10.572;2023-03-01T02:36:10;102110.97;;;7.69;39.46
40490;BME280;26196;52.302;10.572;2023-03-01T02:40:16;102089.09;;;7.56;39.54
40490;BME280;26196;52.302;10.572;2023-03-01T02:44:17;102102.16;;;7.61;39.58
40490;BME280;26196;52.302;10.572;2023-03-01T02:48:19;102102.09;;;7.55;39.33
40490;BME280;26196;52.302;10.572;2023-03-01T02:52:48;102093.47;;;7.59;39.73
40490;BME280;26196;52.302;10.572;2023-03-01T02:56:48;102070.69;;;7.42;39.30
40490;BME280;26196;52.302;10.572;2023-03-01T03:00:50;102066.38;;;7.44;39.32
40490;BME280;26196;52.302;10.572;2023-03-01T03:04:50;102069.00;;;7.43;39.58
40490;BME280;26196;52.302;10.572;2023-03-01T03:08:50;102074.13;;;7.35;39.37
40490;BME280;26196;52.302;10.572;2023-03-01T03:12:54;102082.88;;;7.43;39.72
40490;BME280;26196;52.302;10.572;2023-03-01T03:16:55;102083.69;;;7.38;39.42
40490;BME280;26196;52.302;10.572;2023-03-01T03:20:55;102075.78;;;7.30;39.05
40490;BME280;26196;52.302;10.572;2023-03-01T03:24:59;102084.47;;;7.32;39.34
40490;BME280;26196;52.302;10.572;2023-03-01T03:28:59;102089.63;;;7.26;39.45
40490;BME280;26196;52.302;10.572;2023-03-01T03:33:00;102090.44;;;7.20;39.25
40490;BME280;26196;52.302;10.572;2023-03-01T03:37:03;102095.59;;;7.19;39.47
40490;BME280;26196;52.302;10.572;2023-03-01T03:41:24;102092.13;;;7.17;39.44
40490;BME280;26196;52.302;10.572;2023-03-01T03:45:24;102060.69;;;7.03;39.16
40490;BME280;26196;52.302;10.572;2023-03-01T03:49:24;102087.69;;;7.10;39.14
40490;BME280;26196;52.302;10.572;2023-03-01T03:53:28;102058.97;;;7.02;39.55
40490;BME280;26196;52.302;10.572;2023-03-01T03:57:29;102080.69;;;7.06;39.18
40490;BME280;26196;52.302;10.572;2023-03-01T04:01:29;102081.59;;;7.08;39.07
40490;BME280;26196;52.302;10.572;2023-03-01T04:05:31;102082.34;;;6.99;39.60
40490;BME280;26196;52.302;10.572;2023-03-01T04:09:32;102077.88;;;6.90;39.37
40490;BME280;26196;52.302;10.572;2023-03-01T04:13:32;102085.72;;;6.93;39.12
40490;BME280;26196;52.302;10.572;2023-03-01T04:17:32;102091.84;;;6.94;39.11
40490;BME280;26196;52.302;10.572;2023-03-01T04:21:34;102088.34;;;6.92;39.23
40490;BME280;26196;52.302;10.572;2023-03-01T04:25:40;102081.28;;;6.83;39.13
40490;BME280;26196;52.302;10.572;2023-03-01T04:29:41;102094.41;;;6.92;39.24
40490;BME280;26196;52.302;10.572;2023-03-01T04:34:08;102093.50;;;6.90;39.86
40490;BME280;26196;52.302;10.572;2023-03-01T04:38:09;102086.63;;;6.94;39.50
40490;BME280;26196;52.302;10.572;2023-03-01T04:42:09;102067.34;;;6.78;39.42
40490;BME280;26196;52.302;10.572;2023-03-01T04:46:15;102080.34;;;6.78;39.20
40490;BME280;26196;52.302;10.572;2023-03-01T04:50:16;102066.34;;;6.70;39.49
40490;BME280;26196;52.302;10.572;2023-03-01T04:54:17;102057.50;;;6.58;39.42
40490;BME280;26196;52.302;10.572;2023-03-01T04:58:17;102046.19;;;6.55;39.50
40490;BME280;26196;52.302;10.572;2023-03-01T05:02:18;102068.91;;;6.67;39.46
40490;BME280;26196;52.302;10.572;2023-03-01T05:06:19;102051.41;;;6.55;39.54
40490;BME280;26196;52.302;10.572;2023-03-01T05:10:20;102034.00;;;6.49;39.73
40490;BME280;26196;52.302;10.572;2023-03-01T05:14:20;102057.44;;;6.52;39.94
40490;BME280;26196;52.302;10.572;2023-03-01T05:18:22;102047.81;;;6.48;39.47
40490;BME280;26196;52.302;10.572;2023-03-01T05:22:41;102063.63;;;6.62;39.66
40490;BME280;26196;52.302;10.572;2023-03-01T05:26:41;102024.38;;;6.45;39.69
40490;BME280;26196;52.302;10.572;2023-03-01T05:35:40;102066.22;;;6.61;40.47
40490;BME280;26196;52.302;10.572;2023-03-01T05:39:50;102064.47;;;6.60;40.18
40490;BME280;26196;52.302;10.572;2023-03-01T05:43:53;102057.47;;;6.55;40.66
40490;BME280;26196;52.302;10.572;2023-03-01T05:47:55;102060.97;;;6.57;40.47
40490;BME280;26196;52.302;10.572;2023-03-01T05:52:07;102059.19;;;6.53;40.69
40490;BME280;26196;52.302;10.572;2023-03-01T05:56:24;102060.06;;;6.55;41.46
40490;BME280;26196;52.302;10.572;2023-03-01T06:00:25;102052.31;;;6.57;40.57
40490;BME280;26196;52.302;10.572;2023-03-01T06:04:26;102050.63;;;6.61;40.64
40490;BME280;26196;52.302;10.572;2023-03-01T06:08:26;102054.91;;;6.58;41.06
40490;BME280;26196;52.302;10.572;2023-03-01T06:12:33;102049.53;;;6.45;40.59
40490;BME280;26196;52.302;10.572;2023-03-01T06:16:34;102056.78;;;6.69;41.27
40490;BME280;26196;52.302;10.572;2023-03-01T06:20:35;102050.06;;;6.85;41.62
40490;BME280;26196;52.302;10.572;2023-03-01T06:24:35;102052.44;;;6.69;40.50
40490;BME280;26196;52.302;10.572;2023-03-01T06:28:36;102039.25;;;6.55;40.89
40490;BME280;26196;52.302;10.572;2023-03-01T06:32:37;102055.78;;;6.59;41.04
40490;BME280;26196;52.302;10.572;2023-03-01T06:36:37;102048.66;;;6.44;40.97
40490;BME280;26196;52.302;10.572;2023-03-01T06:40:39;102055.63;;;6.48;40.96
40490;BME280;26196;52.302;10.572;2023-03-01T06:44:39;102067.84;;;6.52;40.50
40490;BME280;26196;52.302;10.572;2023-03-01T06:48:41;102069.63;;;6.55;41.32
40490;BME280;26196;52.302;10.572;2023-03-01T06:52:41;102058.38;;;6.57;41.28
40490;BME280;26196;52.302;10.572;2023-03-01T06:56:49;102059.13;;;6.50;40.40
40490;BME280;26196;52.302;10.572;2023-03-01T07:00:50;102068.34;;;6.89;41.49
40490;BME280;26196;52.302;10.572;2023-03-01T07:04:50;102070.97;;;6.92;40.80
40490;BME280;26196;52.302;10.572;2023-03-01T07:08:51;102072.44;;;6.72;40.81
40490;BME280;26196;52.302;10.572;2023-03-01T07:12:55;102057.50;;;6.58;40.96
40490;BME280;26196;52.302;10.572;2023-03-01T07:16:55;102061.00;;;6.61;41.14
40490;BME280;26196;52.302;10.572;2023-03-01T07:20:56;102046.16;;;6.52;40.59
40490;BME280;26196;52.302;10.572;2023-03-01T07:24:57;102032.22;;;6.47;40.74
40490;BME280;26196;52.302;10.572;2023-03-01T07:29:02;102049.63;;;6.54;40.84
40490;BME280;26196;52.302;10.572;2023-03-01T07:33:05;102044.41;;;6.51;40.77
40490;BME280;26196;52.302;10.572;2023-03-01T07:37:21;102040.97;;;6.53;40.66
40490;BME280;26196;52.302;10.572;2023-03-01T07:41:21;102040.97;;;6.53;40.63
40490;BME280;26196;52.302;10.572;2023-03-01T07:45:22;102036.72;;;6.60;40.70
40490;BME280;26196;52.302;10.572;2023-03-01T07:49:22;102043.91;;;6.78;40.77
40490;BME280;26196;52.302;10.572;2023-03-01T07:53:23;102040.22;;;6.62;40.76
40490;BME280;26196;52.302;10.572;2023-03-01T07:57:24;102046.25;;;6.58;40.74
40490;BME280;26196;52.302;10.572;2023-03-01T08:01:25;102053.09;;;6.53;40.65
40490;BME280;26196;52.302;10.572;2023-03-01T08:05:29;102053.97;;;6.53;41.01
40490;BME280;26196;52.302;10.572;2023-03-01T08:09:29;102054.31;;;6.78;42.02
40490;BME280;26196;52.302;10.572;2023-03-01T08:18:19;102052.50;;;6.71;41.16
40490;BME280;26196;52.302;10.572;2023-03-01T08:22:20;102043.75;;;6.66;40.71
40490;BME280;26196;52.302;10.572;2023-03-01T08:26:21;102040.34;;;6.71;42.26
40490;BME280;26196;52.302;10.572;2023-03-01T08:30:31;102036.06;;;6.76;40.85
40490;BME280;26196;52.302;10.572;2023-03-01T08:34:31;102031.66;;;6.71;40.65
40490;BME280;26196;52.302;10.572;2023-03-01T08:38:35;102037.84;;;6.79;41.03
40490;BME280;26196;52.302;10.572;2023-03-01T08:42:42;102032.66;;;6.82;40.92
40490;BME280;26196;52.302;10.572;2023-03-01T08:46:43;102031.84;;;6.83;41.17
40490;BME280;26196;52.302;10.572;2023-03-01T08:50:45;102018.75;;;6.78;41.17
40490;BME280;26196;52.302;10.572;2023-03-01T08:54:53;102017.97;;;6.84;41.56
40490;BME280;26196;52.302;10.572;2023-03-01T08:58:56;102030.22;;;6.94;41.69
40490;BME280;26196;52.302;10.572;2023-03-01T09:02:57;102021.44;;;6.85;41.31
40490;BME280;26196;52.302;10.572;2023-03-01T09:06:57;102034.50;;;6.91;41.56
40490;BME280;26196;52.302;10.572;2023-03-01T09:10:57;102026.66;;;6.86;42.33
40490;BME280;26196;52.302;10.572;2023-03-01T09:15:23;102023.25;;;6.92;42.01
40490;BME280;26196;52.302;10.572;2023-03-01T09:19:23;102017.94;;;6.81;41.98
40490;BME280;26196;52.302;10.572;2023-03-01T09:23:24;102010.97;;;6.82;41.89
40490;BME280;26196;52.302;10.572;2023-03-01T09:27:24;102019.81;;;6.94;42.21
40490;BME280;26196;52.302;10.572;2023-03-01T09:31:26;102006.66;;;6.82;42.04
40490;BME280;26196;52.302;10.572;2023-03-01T09:35:46;102023.41;;;7.06;42.51
40490;BME280;26196;52.302;10.572;2023-03-01T09:39:47;102015.63;;;7.09;43.02
40490;BME280;26196;52.302;10.572;2023-03-01T09:43:51;102001.66;;;6.99;43.40
40490;BME280;26196;52.302;10.572;2023-03-01T09:48:12;101971.34;;;7.04;43.92
40490;BME280;26196;52.302;10.572;2023-03-01T09:52:35;102007.22;;;7.31;44.17
40490;BME280;26196;52.302;10.572;2023-03-01T09:56:46;102009.81;;;7.31;44.20
40490;BME280;26196;52.302;10.572;2023-03-01T10:00:49;101987.09;;;7.19;43.92
40490;BME280;26196;52.302;10.572;2023-03-01T10:04:52;102002.81;;;7.27;44.12
40490;BME280;26196;52.302;10.572;2023-03-01T10:08:56;102011.53;;;7.32;44.19
40490;BME280;26196;52.302;10.572;2023-03-01T10:13:01;101993.31;;;7.31;43.89
40490;BME280;26196;52.302;10.572;2023-03-01T10:17:41;102013.34;;;7.39;44.55
40490;BME280;26196;52.302;10.572;2023-03-01T10:21:45;102009.91;;;7.40;44.75
40490;BME280;26196;52.302;10.572;2023-03-01T10:26:20;102012.56;;;7.47;44.79
40490;BME280;26196;52.302;10.572;2023-03-01T10:30:39;101978.63;;;7.39;44.96
40490;BME280;26196;52.302;10.572;2023-03-01T10:34:46;101997.03;;;7.57;45.15
40490;BME280;26196;52.302;10.572;2023-03-01T10:38:53;101984.84;;;7.52;45.48
40490;BME280;26196;52.302;10.572;2023-03-01T10:42:57;101972.66;;;7.51;45.73
40490;BME280;26196;52.302;10.572;2023-03-01T10:47:00;101976.16;;;7.56;45.78
40490;BME280;26196;52.302;10.572;2023-03-01T10:55:24;101985.88;;;7.72;45.68
40490;BME280;26196;52.302;10.572;2023-03-01T10:59:33;101982.41;;;7.73;45.75
40490;BME280;26196;52.302;10.572;2023-03-01T11:03:38;101984.19;;;7.77;45.70
40490;BME280;26196;52.302;10.572;2023-03-01T11:07:49;101985.09;;;7.82;45.64
40490;BME280;26196;52.302;10.572;2023-03-01T11:11:55;101970.31;;;7.84;46.27
40490;BME280;26196;52.302;10.572;2023-03-01T11:16:14;101959.88;;;7.81;45.87
40490;BME280;26196;52.302;10.572;2023-03-01T11:20:32;101971.28;;;7.93;45.83
40490;BME280;26196;52.302;10.572;2023-03-01T11:24:43;101964.31;;;7.93;45.71
40490;BME280;26196;52.302;10.572;2023-03-01T11:28:55;101961.72;;;7.96;45.78
40490;BME280;26196;52.302;10.572;2023-03-01T11:37:15;101956.53;;;7.98;45.94
40490;BME280;26196;52.302;10.572;2023-03-01T11:41:29;101939.97;;;7.94;45.66
40490;BME280;26196;52.302;10.572;2023-03-01T11:45:43;101939.94;;;7.85;45.33
40490;BME280;26196;52.302;10.572;2023-03-01T11:54:30;101953.09;;;8.06;45.85
40490;BME280;26196;52.302;10.572;2023-03-01T12:02:52;101941.81;;;8.10;45.54
40490;BME280;26196;52.302;10.572;2023-03-01T12:11:32;101945.34;;;8.20;46.06
40490;BME280;26196;52.302;10.572;2023-03-01T12:20:21;101915.78;;;8.18;46.27
40490;BME280;26196;52.302;10.572;2023-03-01T12:24:52;101907.09;;;8.21;46.58
40490;BME280;26196;52.302;10.572;2023-03-01T12:51:20;101875.03;;;8.42;46.86
40490;BME280;26196;52.302;10.572;2023-03-01T12:55:41;101854.16;;;8.42;46.94
40490;BME280;26196;52.302;10.572;2023-03-01T12:59:59;101841.09;;;8.37;46.20
40490;BME280;26196;52.302;10.572;2023-03-01T13:13:13;101852.50;;;8.65;47.07
40490;BME280;26196;52.302;10.572;2023-03-01T13:17:32;101853.38;;;8.72;47.18
40490;BME280;26196;52.302;10.572;2023-03-01T13:21:38;101846.44;;;8.74;46.81
40490;BME280;26196;52.302;10.572;2023-03-01T13:26:16;101850.78;;;8.76;47.10
40490;BME280;26196;52.302;10.572;2023-03-01T13:39:32;101830.78;;;8.83;46.84
40490;BME280;26196;52.302;10.572;2023-03-01T13:43:41;101803.78;;;8.70;46.70
40490;BME280;26196;52.302;10.572;2023-03-01T13:48:00;101826.41;;;8.91;47.12
40490;BME280;26196;52.302;10.572;2023-03-01T13:52:02;101830.81;;;8.97;47.46
40490;BME280;26196;52.302;10.572;2023-03-01T13:56:28;101826.44;;;8.96;46.66
40490;BME280;26196;52.302;10.572;2023-03-01T14:00:38;101815.13;;;9.00;46.78
40490;BME280;26196;52.302;10.572;2023-03-01T14:04:58;101808.16;;;9.04;46.69
40490;BME280;26196;52.302;10.572;2023-03-01T14:09:16;101807.28;;;9.09;47.20
40490;BME280;26196;52.302;10.572;2023-03-01T14:18:25;101804.66;;;9.12;46.95
40490;BME280;26196;52.302;10.572;2023-03-01T14:22:36;101793.34;;;9.15;46.88
40490;BME280;26196;52.302;10.572;2023-03-01T14:26:37;101784.63;;;9.14;47.38
40490;BME280;26196;52.302;10.572;2023-03-01T14:30:43;101798.59;;;9.18;47.13
40490;BME280;26196;52.302;10.572;2023-03-01T14:34:49;101795.09;;;9.24;47.27
40490;BME280;26196;52.302;10.572;2023-03-01T14:38:50;101786.38;;;9.25;47.05
40490;BME280;26196;52.302;10.572;2023-03-01T14:43:00;101778.53;;;9.28;47.09
40490;BME280;26196;52.302;10.572;2023-03-01T14:47:01;101743.72;;;9.18;47.52
40490;BME280;26196;52.302;10.572;2023-03-01T14:55:59;101763.69;;;9.40;46.74
40490;BME280;26196;52.302;10.572;2023-03-01T15:00:06;101755.00;;;9.41;47.04
40490;BME280;26196;52.302;10.572;2023-03-01T15:04:10;101752.38;;;9.45;47.48
40490;BME280;26196;52.302;10.572;2023-03-01T15:08:19;101748.00;;;9.45;46.83
40490;BME280;26196;52.302;10.572;2023-03-01T15:16:40;101761.91;;;9.56;46.65
40490;BME280;26196;52.302;10.572;2023-03-01T15:20:43;101742.75;;;9.51;47.07
40490;BME280;26196;52.302;10.572;2023-03-01T15:24:50;101753.19;;;9.59;47.06
40490;BME280;26196;52.302;10.572;2023-03-01T15:28:52;101743.59;;;9.66;47.42
40490;BME280;26196;52.302;10.572;2023-03-01T15:33:33;101735.72;;;9.72;47.54
40490;BME280;26196;52.302;10.572;2023-03-01T15:37:44;101713.09;;;9.61;47.94
40490;BME280;26196;52.302;10.572;2023-03-01T15:41:49;101731.38;;;9.69;47.74
40490;BME280;26196;52.302;10.572;2023-03-01T15:45:56;101733.97;;;9.72;47.42
40490;BME280;26196;52.302;10.572;2023-03-01T15:49:58;101715.72;;;9.66;47.98
40490;BME280;26196;52.302;10.572;2023-03-01T15:54:10;101723.53;;;9.74;47.95
40490;BME280;26196;52.302;10.572;2023-03-01T15:58:17;101719.13;;;9.77;47.80
40490;BME280;26196;52.302;10.572;2023-03-01T16:02:17;101709.56;;;9.75;47.45
40490;BME280;26196;52.302;10.572;2023-03-01T16:06:20;101698.25;;;9.76;47.14
40490;BME280;26196;52.302;10.572;2023-03-01T16:10:21;101689.56;;;9.71;47.24
40490;BME280;26196;52.302;10.572;2023-03-01T16:14:23;101706.91;;;9.85;46.76
40490;BME280;26196;52.302;10.572;2023-03-01T16:18:26;101678.22;;;9.70;47.01
40490;BME280;26196;52.302;10.572;2023-03-01T16:22:26;101683.41;;;9.76;46.54
40490;BME280;26196;52.302;10.572;2023-03-01T16:26:27;101705.16;;;9.91;46.76
40490;BME280;26196;52.302;10.572;2023-03-01T16:30:29;101694.72;;;9.83;46.76
40490;BME280;26196;52.302;10.572;2023-03-01T16:34:33;101701.63;;;9.90;46.84
40490;BME280;26196;52.302;10.572;2023-03-01T16:38:33;101682.53;;;9.80;46.85
40490;BME280;26196;52.302;10.572;2023-03-01T16:42:37;101712.09;;;9.92;47.29
40490;BME280;26196;52.302;10.572;2023-03-01T16:46:37;101691.22;;;9.89;47.11
40490;BME280;26196;52.302;10.572;2023-03-01T16:50:37;101732.97;;;10.02;47.41
40490;BME280;26196;52.302;10.572;2023-03-01T16:54:38;101726.91;;;9.93;47.73
40490;BME280;26196;52.302;10.572;2023-03-01T16:58:40;101707.78;;;9.86;48.08
40490;BME280;26196;52.302;10.572;2023-03-01T17:02:41;101725.13;;;10.02;47.60
40490;BME280;26196;52.302;10.572;2023-03-01T17:06:41;101733.84;;;10.03;47.74
40490;BME280;26196;52.302;10.572;2023-03-01T17:10:50;101707.75;;;9.89;47.89
40490;BME280;26196;52.302;10.572;2023-03-01T17:14:54;101729.50;;;10.02;47.74
40490;BME280;26196;52.302;10.572;2023-03-01T17:19:05;101735.53;;;10.08;48.21
40490;BME280;26196;52.302;10.572;2023-03-01T17:23:05;101714.69;;;9.93;47.39
40490;BME280;26196;52.302;10.572;2023-03-01T17:27:13;101738.19;;;10.05;47.45
40490;BME280;26196;52.302;10.572;2023-03-01T17:31:25;101713.00;;;9.88;47.33
40490;BME280;26196;52.302;10.572;2023-03-01T17:35:26;101755.63;;;10.10;47.80
40490;BME280;26196;52.302;10.572;2023-03-01T17:39:26;101751.25;;;10.08;47.35
40490;BME280;26196;52.302;10.572;2023-03-01T17:43:45;101753.84;;;10.08;47.68
40490;BME280;26196;52.302;10.572;2023-03-01T17:47:45;101742.53;;;10.03;47.29
40490;BME280;26196;52.302;10.572;2023-03-01T17:51:45;101738.22;;;9.99;47.03
40490;BME280;26196;52.302;10.572;2023-03-01T17:55:59;101733.00;;;9.95;47.22
40490;BME280;26196;52.302;10.572;2023-03-01T18:00:04;101759.09;;;10.08;47.46
40490;BME280;26196;52.302;10.572;2023-03-01T18:04:05;101755.63;;;10.06;46.84
40490;BME280;26196;52.302;10.572;2023-03-01T18:08:06;101757.34;;;10.06;46.79
40490;BME280;26196;52.302;10.572;2023-03-01T18:12:08;101733.91;;;9.92;46.90
40490;BME280;26196;52.302;10.572;2023-03-01T18:16:14;101742.59;;;9.97;47.05
40490;BME280;26196;52.302;10.572;2023-03-01T18:20:14;101760.00;;;10.04;46.21
40490;BME280;26196;52.302;10.572;2023-03-01T18:24:16;101758.22;;;10.10;46.72
40490;BME280;26196;52.302;10.572;2023-03-01T18:28:27;101763.47;;;10.08;46.13
40490;BME280;26196;52.302;10.572;2023-03-01T18:32:36;101749.50;;;10.07;45.94
40490;BME280;26196;52.302;10.572;2023-03-01T18:36:38;101745.16;;;10.03;45.93
40490;BME280;26196;52.302;10.572;2023-03-01T18:40:41;101739.06;;;10.07;46.03
40490;BME280;26196;52.302;10.572;2023-03-01T18:44:41;101735.59;;;10.04;46.02
40490;BME280;26196;52.302;10.572;2023-03-01T18:48:42;101730.34;;;10.02;45.85
40490;BME280;26196;52.302;10.572;2023-03-01T18:52:51;101740.78;;;10.08;46.18
40490;BME280;26196;52.302;10.572;2023-03-01T18:56:53;101730.31;;;10.08;46.53
40490;BME280;26196;52.302;10.572;2023-03-01T19:00:53;101732.06;;;10.03;46.03
40490;BME280;26196;52.302;10.572;2023-03-01T19:04:53;101719.09;;;9.91;46.62
40490;BME280;26196;52.302;10.572;2023-03-01T19:09:07;101708.63;;;9.90;46.74
40490;BME280;26196;52.302;10.572;2023-03-01T19:13:07;101743.38;;;10.08;46.14
40490;BME280;26196;52.302;10.572;2023-03-01T19:17:07;101722.50;;;10.07;46.55
40490;BME280;26196;52.302;10.572;2023-03-01T19:21:10;101719.84;;;10.08;46.43
40490;BME280;26196;52.302;10.572;2023-03-01T19:25:10;101740.75;;;10.15;46.44
40490;BME280;26196;52.302;10.572;2023-03-01T19:29:11;101725.16;;;9.99;46.25
40490;BME280;26196;52.302;10.572;2023-03-01T19:33:12;101732.09;;;10.00;45.69
40490;BME280;26196;52.302;10.572;2023-03-01T19:37:12;101751.25;;;10.08;45.85
40490;BME280;26196;52.302;10.572;2023-03-01T19:41:15;101756.47;;;10.10;45.29
40490;BME280;26196;52.302;10.572;2023-03-01T19:45:17;101756.47;;;10.10;45.67
40490;BME280;26196;52.302;10.572;2023-03-01T19:49:18;101762.59;;;10.09;45.20
40490;BME280;26196;52.302;10.572;2023-03-01T19:53:19;101733.88;;;9.95;45.35
40490;BME280;26196;52.302;10.572;2023-03-01T19:57:19;101752.13;;;10.06;45.24
40490;BME280;26196;52.302;10.572;2023-03-01T20:01:21;101753.88;;;10.10;46.01
40490;BME280;26196;52.302;10.572;2023-03-01T20:05:21;101742.53;;;10.03;45.11
40490;BME280;26196;52.302;10.572;2023-03-01T20:09:25;101734.75;;;9.97;45.07
40490;BME280;26196;52.302;10.572;2023-03-01T20:13:25;101741.72;;;10.01;44.92
40490;BME280;26196;52.302;10.572;2023-03-01T20:17:34;101719.94;;;9.93;44.63
40490;BME280;26196;52.302;10.572;2023-03-01T20:21:34;101732.16;;;9.90;44.68
40490;BME280;26196;52.302;10.572;2023-03-01T20:25:40;101740.84;;;9.99;44.47
40490;BME280;26196;52.302;10.572;2023-03-01T20:29:47;101735.59;;;10.01;44.20
40490;BME280;26196;52.302;10.572;2023-03-01T20:33:53;101737.31;;;10.03;43.67
40490;BME280;26196;52.302;10.572;2023-03-01T20:37:56;101746.03;;;10.05;43.99
40490;BME280;26196;52.302;10.572;2023-03-01T20:41:57;101739.06;;;10.03;43.99
40490;BME280;26196;52.302;10.572;2023-03-01T20:45:57;101716.47;;;9.91;44.45
40490;BME280;26196;52.302;10.572;2023-03-01T20:49:57;101746.06;;;9.99;43.70
40490;BME280;26196;52.302;10.572;2023-03-01T20:54:12;101757.38;;;9.98;43.86
40490;BME280;26196;52.302;10.572;2023-03-01T20:58:22;101737.41;;;9.86;44.09
40490;BME280;26196;52.302;10.572;2023-03-01T21:02:22;101756.53;;;9.93;43.81
40490;BME280;26196;52.302;10.572;2023-03-01T21:06:25;101745.25;;;9.88;43.73
40490;BME280;26196;52.302;10.572;2023-03-01T21:10:25;101745.25;;;9.88;43.98
40490;BME280;26196;52.302;10.572;2023-03-01T21:14:40;101752.22;;;9.88;43.39
40490;BME280;26196;52.302;10.572;2023-03-01T21:18:43;101736.56;;;9.78;43.11
40490;BME280;26196;52.302;10.572;2023-03-01T21:22:47;101742.63;;;9.85;43.29
40490;BME280;26196;52.302;10.572;2023-03-01T21:26:48;101726.13;;;9.78;43.03
40490;BME280;26196;52.302;10.572;2023-03-01T21:30:48;101728.72;;;9.77;42.58
40490;BME280;26196;52.302;10.572;2023-03-01T21:34:48;101728.72;;;9.81;42.72
40490;BME280;26196;52.302;10.572;2023-03-01T21:38:50;101723.47;;;9.80;42.78
40490;BME280;26196;52.302;10.572;2023-03-01T21:42:50;101714.81;;;9.78;42.45
40490;BME280;26196;52.302;10.572;2023-03-01T21:46:51;101707.84;;;9.71;41.76
40490;BME280;26196;52.302;10.572;2023-03-01T21:50:57;101701.78;;;9.66;42.35
40490;BME280;26196;52.302;10.572;2023-03-01T21:54:57;101715.66;;;9.77;41.86
40490;BME280;26196;52.302;10.572;2023-03-01T21:59:09;101694.78;;;9.71;42.02
40490;BME280;26196;52.302;10.572;2023-03-01T22:03:09;101686.94;;;9.66;41.91
40490;BME280;26196;52.302;10.572;2023-03-01T22:07:10;101683.47;;;9.66;42.04
40490;BME280;26196;52.302;10.572;2023-03-01T22:11:13;101687.78;;;9.71;41.33
40490;BME280;26196;52.302;10.572;2023-03-01T22:15:14;101681.75;;;9.63;41.55
40490;BME280;26196;52.302;10.572;2023-03-01T22:19:26;101668.72;;;9.57;41.39
40490;BME280;26196;52.302;10.572;2023-03-01T22:23:27;101664.34;;;9.56;41.13
40490;BME280;26196;52.302;10.572;2023-03-01T22:27:28;101679.13;;;9.63;41.26
40490;BME280;26196;52.302;10.572;2023-03-01T22:31:29;101674.78;;;9.60;41.20
40490;BME280;26196;52.302;10.572;2023-03-01T22:35:30;101673.91;;;9.54;41.21
40490;BME280;26196;52.302;10.572;2023-03-01T22:39:30;101676.53;;;9.60;41.54
40490;BME280;26196;52.302;10.572;2023-03-01T22:43:34;101646.09;;;9.40;41.46
40490;BME280;26196;52.302;10.572;2023-03-01T22:47:35;101675.66;;;9.56;40.71
40490;BME280;26196;52.302;10.572;2023-03-01T22:51:48;101682.63;;;9.57;40.75
40490;BME280;26196;52.302;10.572;2023-03-01T22:55:48;101672.22;;;9.50;40.51